Time;durP1;ratioP1;P1;durP2;ratioP2;P2;SDS_P1;SDS_P2;PMS_P1;PMS_P2;Temp;Humidity;BMP_temperature;BMP_pressure;BME280_temperature;BME280_humidity;BME280_pressure;Samples;Min_cycle;Max_cycle;Signal;HPM_P1;HPM_P2
2022/08/20 00:00:35;;;;;;;20.63;12.95;;;;;;;;;;4954197;28;20031;-60
2022/08/20 00:03:27;;;;;;;20.67;12.88;;;;;;;;;;4961814;28;20026;-62
2022/08/20 00:06:13;;;;;;;19.40;13.27;;;;;;;;;;4962610;28;20094;-62
2022/08/20 00:08:40;;;;;;;19.63;12.93;;;;;;;;;;4958981;28;20030;-60
2022/08/20 00:11:08;;;;;;;19.30;12.20;;;;;;;;;;4970192;28;20066;-60
2022/08/20 00:13:41;;;;;;;23.45;13.30;;;;;;;;;;4968998;28;20035;-59
2022/08/20 00:16:07;;;;;;;20.73;13.50;;;;;;;;;;4970551;28;20050;-60
2022/08/20 00:18:35;;;;;;;20.20;13.25;;;;;;;;;;4971274;28;20360;-60
2022/08/20 00:21:05;;;;;;;20.10;13.07;;;;;;;;;;4966993;28;20039;-60
2022/08/20 00:23:30;;;;;;;22.35;13.60;;;;;;;;;;4973640;28;20027;-61
2022/08/20 00:25:56;;;;;;;24.50;13.80;;;;;;;;;;4971676;28;20038;-64
2022/08/20 00:28:21;;;;;;;22.60;13.25;;;;;;;;;;4971941;28;20403;-61
2022/08/20 00:30:48;;;;;;;20.42;13.50;;;;;;;;;;4970232;28;20034;-61
2022/08/20 00:33:19;;;;;;;22.40;13.75;;;;;;;;;;4968112;28;20043;-61
2022/08/20 00:35:51;;;;;;;24.27;14.02;;;;;;;;;;4970197;28;20088;-60
2022/08/20 00:38:17;;;;;;;21.40;13.98;;;;;;;;;;4971387;28;20031;-61
2022/08/20 00:40:47;;;;;;;22.23;13.18;;;;;;;;;;4971706;28;20034;-61
2022/08/20 00:43:30;;;;;;;23.83;13.98;;;;;;;;;;4969700;28;20035;-61
2022/08/20 00:45:58;;;;;;;23.08;13.70;;;;;;;;;;4968216;28;20035;-63
2022/08/20 00:48:27;;;;;;;21.25;13.25;;;;;;;;;;4971451;28;20097;-59
2022/08/20 00:50:58;;;;;;;24.35;14.70;;;;;;;;;;4970445;28;20035;-59
2022/08/20 00:53:25;;;;;;;22.95;14.50;;;;;;;;;;4970840;28;20038;-61
2022/08/20 00:55:51;;;;;;;21.45;14.30;;;;;;;;;;4956357;28;20491;-61
2022/08/20 00:58:17;;;;;;;23.50;14.90;;;;;;;;;;4970400;28;20566;-60
2022/08/20 01:00:44;;;;;;;23.17;14.25;;;;;;;;;;4969708;28;20463;-61
2022/08/20 01:03:35;;;;;;;22.90;14.30;;;;;;;;;;4958800;28;20130;-61
2022/08/20 01:06:01;;;;;;;22.20;13.63;;;;;;;;;;4969239;28;20039;-61
2022/08/20 01:08:26;;;;;;;21.40;13.85;;;;;;;;;;4971938;28;20034;-61
2022/08/20 01:11:16;;;;;;;21.95;14.02;;;;;;;;;;4970992;28;20045;-60
2022/08/20 01:13:41;;;;;;;20.63;13.00;;;;;;;;;;4971069;28;20061;-63
2022/08/20 01:16:23;;;;;;;20.70;13.82;;;;;;;;;;4969698;28;20391;-60
2022/08/20 01:18:50;;;;;;;20.80;12.82;;;;;;;;;;4969504;28;20066;-59
2022/08/20 01:21:38;;;;;;;18.63;12.63;;;;;;;;;;4965843;28;20042;-61
2022/08/20 01:24:34;;;;;;;18.05;12.35;;;;;;;;;;4968614;28;20046;-61
2022/08/20 01:27:02;;;;;;;18.25;11.93;;;;;;;;;;4969601;28;20062;-64
2022/08/20 01:29:34;;;;;;;21.17;12.20;;;;;;;;;;4970681;28;20039;-60
2022/08/20 01:32:01;;;;;;;17.23;11.90;;;;;;;;;;4968589;28;20039;-63
2022/08/20 01:34:27;;;;;;;17.00;11.73;;;;;;;;;;4970349;28;20047;-60
2022/08/20 01:36:56;;;;;;;18.17;11.98;;;;;;;;;;4972012;28;20039;-60
2022/08/20 01:39:31;;;;;;;19.98;12.30;;;;;;;;;;4969206;28;20049;-60
2022/08/20 01:42:25;;;;;;;18.55;12.80;;;;;;;;;;4972163;28;20113;-63
2022/08/20 01:44:51;;;;;;;20.25;12.40;;;;;;;;;;4962231;28;20170;-60
2022/08/20 01:47:25;;;;;;;18.52;12.40;;;;;;;;;;4970013;28;20064;-61
2022/08/20 01:50:12;;;;;;;19.08;12.93;;;;;;;;;;4970630;28;20027;-60
2022/08/20 01:52:56;;;;;;;19.33;12.38;;;;;;;;;;4970971;28;20070;-60
2022/08/20 01:55:21;;;;;;;20.90;12.93;;;;;;;;;;4963767;28;20625;-61
2022/08/20 01:57:47;;;;;;;17.88;12.50;;;;;;;;;;4975098;28;20092;-60
2022/08/20 02:00:18;;;;;;;21.08;13.25;;;;;;;;;;4973707;28;20202;-60
2022/08/20 02:02:43;;;;;;;19.70;12.65;;;;;;;;;;4969717;28;20114;-60
2022/08/20 02:05:10;;;;;;;20.48;12.38;;;;;;;;;;4971547;28;20125;-61
2022/08/20 02:07:36;;;;;;;20.23;13.32;;;;;;;;;;4975829;28;20027;-60
2022/08/20 02:10:05;;;;;;;21.30;13.50;;;;;;;;;;4970416;28;20452;-64
2022/08/20 02:12:30;;;;;;;21.23;13.68;;;;;;;;;;4974879;28;20041;-61
2022/08/20 02:14:56;;;;;;;23.60;13.50;;;;;;;;;;4975028;28;20035;-60
2022/08/20 02:17:25;;;;;;;22.02;14.13;;;;;;;;;;4973696;28;20042;-60
2022/08/20 02:20:01;;;;;;;22.02;13.20;;;;;;;;;;4974687;28;20058;-60
2022/08/20 02:22:32;;;;;;;25.35;13.30;;;;;;;;;;4974160;28;20077;-60
2022/08/20 02:24:58;;;;;;;22.73;14.55;;;;;;;;;;4974843;28;20380;-60
2022/08/20 02:27:23;;;;;;;26.17;14.93;;;;;;;;;;4973278;28;20037;-59
2022/08/20 02:29:50;;;;;;;23.85;14.40;;;;;;;;;;4973032;28;20038;-60
2022/08/20 02:32:15;;;;;;;24.75;14.52;;;;;;;;;;4972741;28;20030;-59
2022/08/20 02:34:41;;;;;;;24.25;13.98;;;;;;;;;;4971796;28;20053;-60
2022/08/20 02:37:07;;;;;;;31.98;14.98;;;;;;;;;;4970736;28;20082;-60
2022/08/20 02:39:33;;;;;;;29.52;15.05;;;;;;;;;;4972723;28;20038;-62
2022/08/20 02:41:59;;;;;;;31.05;16.33;;;;;;;;;;4971312;28;20034;-62
2022/08/20 02:44:24;;;;;;;31.05;15.88;;;;;;;;;;4972061;28;20080;-60
2022/08/20 02:46:50;;;;;;;29.98;15.77;;;;;;;;;;4972343;28;20042;-60
2022/08/20 02:49:16;;;;;;;37.67;16.55;;;;;;;;;;4959992;28;20067;-60
2022/08/20 02:51:43;;;;;;;34.65;16.15;;;;;;;;;;4969924;28;20399;-60
2022/08/20 02:54:08;;;;;;;38.95;16.52;;;;;;;;;;4956949;28;20442;-60
2022/08/20 02:56:34;;;;;;;38.42;16.38;;;;;;;;;;4972912;28;20055;-60
2022/08/20 02:58:59;;;;;;;33.63;15.88;;;;;;;;;;4973286;28;20089;-60
2022/08/20 03:01:26;;;;;;;33.28;15.95;;;;;;;;;;4972044;28;20031;-59
2022/08/20 03:03:52;;;;;;;33.38;16.45;;;;;;;;;;4971307;28;20053;-59
2022/08/20 03:06:17;;;;;;;37.47;16.73;;;;;;;;;;4962360;28;20464;-60
2022/08/20 03:08:43;;;;;;;34.17;16.33;;;;;;;;;;4970631;28;20034;-60
2022/08/20 03:11:08;;;;;;;34.85;17.13;;;;;;;;;;4971967;28;20118;-60
2022/08/20 03:13:34;;;;;;;35.17;16.30;;;;;;;;;;4975110;28;20058;-59
2022/08/20 03:16:01;;;;;;;37.05;17.55;;;;;;;;;;4973894;28;20113;-59
2022/08/20 03:18:37;;;;;;;37.38;16.90;;;;;;;;;;4970576;28;20031;-59
2022/08/20 03:21:04;;;;;;;37.28;17.13;;;;;;;;;;4972376;28;20034;-59
2022/08/20 03:23:30;;;;;;;37.08;16.63;;;;;;;;;;4972067;28;20038;-59
2022/08/20 03:25:56;;;;;;;41.67;18.23;;;;;;;;;;4969174;28;20037;-59
2022/08/20 03:28:22;;;;;;;36.53;17.45;;;;;;;;;;4972090;28;20455;-59
2022/08/20 03:30:49;;;;;;;35.10;16.75;;;;;;;;;;4970390;28;20039;-59
2022/08/20 03:33:15;;;;;;;40.92;16.90;;;;;;;;;;4971973;28;20026;-59
2022/08/20 03:35:40;;;;;;;38.13;16.83;;;;;;;;;;4972876;28;20074;-60
2022/08/20 03:38:10;;;;;;;36.17;17.08;;;;;;;;;;4970817;28;20062;-60
2022/08/20 03:40:36;;;;;;;42.03;18.10;;;;;;;;;;4973026;28;20031;-59
2022/08/20 03:43:04;;;;;;;42.70;16.63;;;;;;;;;;4971785;28;20396;-59
2022/08/20 03:45:31;;;;;;;40.47;17.48;;;;;;;;;;4971070;28;20053;-59
2022/08/20 03:47:57;;;;;;;40.47;17.65;;;;;;;;;;4973122;28;20126;-59
2022/08/20 03:50:25;;;;;;;42.33;17.80;;;;;;;;;;4970937;28;20486;-59
2022/08/20 03:52:52;;;;;;;37.55;17.45;;;;;;;;;;4973216;28;20042;-61
2022/08/20 03:55:20;;;;;;;42.40;17.88;;;;;;;;;;4969780;28;20034;-60
2022/08/20 03:57:49;;;;;;;37.05;17.10;;;;;;;;;;4970166;28;20165;-60
2022/08/20 04:00:19;;;;;;;37.88;17.75;;;;;;;;;;4968241;28;20039;-60
2022/08/20 04:02:45;;;;;;;40.30;17.95;;;;;;;;;;4973120;28;20058;-60
2022/08/20 04:05:11;;;;;;;42.75;17.75;;;;;;;;;;4966988;28;20042;-61
2022/08/20 04:07:36;;;;;;;43.80;17.95;;;;;;;;;;4968806;28;21338;-60
2022/08/20 04:10:05;;;;;;;44.63;17.92;;;;;;;;;;4971513;28;20047;-60
2022/08/20 04:12:31;;;;;;;43.53;18.63;;;;;;;;;;4970267;28;20415;-60
2022/08/20 04:14:57;;;;;;;49.58;17.85;;;;;;;;;;4971410;28;20487;-60
2022/08/20 04:17:26;;;;;;;44.97;19.35;;;;;;;;;;4970578;28;20026;-60
2022/08/20 04:19:51;;;;;;;42.15;17.88;;;;;;;;;;4965598;28;20447;-59
2022/08/20 04:22:16;;;;;;;45.75;18.88;;;;;;;;;;4962822;28;20113;-60
2022/08/20 04:24:42;;;;;;;46.55;18.70;;;;;;;;;;4955871;28;20043;-59
2022/08/20 04:27:09;;;;;;;44.20;19.30;;;;;;;;;;4972641;28;20031;-59
2022/08/20 04:29:35;;;;;;;46.92;19.38;;;;;;;;;;4970893;28;20038;-59
2022/08/20 04:32:03;;;;;;;48.17;19.35;;;;;;;;;;4971693;28;20058;-59
2022/08/20 04:34:29;;;;;;;51.22;18.77;;;;;;;;;;4970496;28;20058;-59
2022/08/20 04:36:54;;;;;;;47.15;19.13;;;;;;;;;;4970778;28;20059;-59
2022/08/20 04:39:20;;;;;;;56.75;20.45;;;;;;;;;;4971598;28;20097;-59
2022/08/20 04:41:45;;;;;;;46.58;19.55;;;;;;;;;;4963335;28;20035;-59
2022/08/20 04:44:11;;;;;;;41.88;18.83;;;;;;;;;;4962738;28;20085;-60
2022/08/20 04:46:38;;;;;;;47.10;19.38;;;;;;;;;;4972177;28;20035;-59
2022/08/20 04:49:05;;;;;;;49.53;19.90;;;;;;;;;;4970313;28;20480;-60
2022/08/20 04:51:31;;;;;;;56.45;21.50;;;;;;;;;;4971881;28;20046;-59
2022/08/20 04:53:57;;;;;;;52.28;19.63;;;;;;;;;;4970502;28;20037;-60
2022/08/20 04:56:25;;;;;;;48.33;21.33;;;;;;;;;;4972163;28;20483;-59
2022/08/20 04:58:53;;;;;;;50.25;19.75;;;;;;;;;;4970584;28;20120;-60
2022/08/20 05:01:19;;;;;;;50.35;20.80;;;;;;;;;;4971338;28;20440;-59
2022/08/20 05:03:46;;;;;;;53.35;21.42;;;;;;;;;;4963880;28;20113;-59
2022/08/20 05:06:12;;;;;;;54.47;20.08;;;;;;;;;;4967192;28;20039;-60
2022/08/20 05:08:38;;;;;;;50.30;20.55;;;;;;;;;;4970673;28;20046;-59
2022/08/20 05:11:04;;;;;;;53.13;21.85;;;;;;;;;;4965770;28;20027;-59
2022/08/20 05:13:30;;;;;;;55.92;22.13;;;;;;;;;;4971806;28;20226;-60
2022/08/20 05:16:00;;;;;;;50.85;23.15;;;;;;;;;;4970414;28;20360;-59
2022/08/20 05:18:26;;;;;;;44.53;21.30;;;;;;;;;;4969451;28;20058;-60
2022/08/20 05:20:52;;;;;;;42.95;21.48;;;;;;;;;;4971134;28;20034;-59
2022/08/20 05:23:18;;;;;;;43.22;21.80;;;;;;;;;;4969264;28;20031;-59
2022/08/20 05:25:47;;;;;;;40.38;20.90;;;;;;;;;;4970552;28;20035;-61
2022/08/20 05:28:19;;;;;;;38.28;19.73;;;;;;;;;;4970721;28;20039;-59
2022/08/20 05:30:46;;;;;;;40.00;20.42;;;;;;;;;;4975990;28;20038;-58
2022/08/20 05:33:18;;;;;;;36.15;19.98;;;;;;;;;;4970530;28;20031;-59
2022/08/20 05:35:45;;;;;;;36.58;19.85;;;;;;;;;;4972645;28;20038;-61
2022/08/20 05:38:14;;;;;;;35.38;19.38;;;;;;;;;;4975044;28;20468;-58
2022/08/20 05:40:41;;;;;;;34.15;18.52;;;;;;;;;;4975265;28;20031;-59
2022/08/20 05:43:07;;;;;;;37.70;19.65;;;;;;;;;;4972683;28;20031;-60
2022/08/20 05:45:36;;;;;;;32.80;17.98;;;;;;;;;;4975168;28;20109;-61
2022/08/20 05:48:10;;;;;;;29.63;17.75;;;;;;;;;;4973780;28;20042;-60
2022/08/20 05:50:37;;;;;;;26.42;17.75;;;;;;;;;;4975088;28;20732;-60
2022/08/20 05:53:03;;;;;;;26.60;15.77;;;;;;;;;;4975306;28;20038;-60
2022/08/20 05:55:29;;;;;;;30.70;15.77;;;;;;;;;;4973454;28;20114;-60
2022/08/20 05:58:00;;;;;;;23.33;15.27;;;;;;;;;;4973411;28;20141;-59
2022/08/20 06:00:27;;;;;;;23.92;14.98;;;;;;;;;;4971968;28;20030;-60
2022/08/20 06:05:37;;;;;;;20.92;13.70;;;;;;;;;;4975730;28;20046;-61
2022/08/20 06:08:04;;;;;;;18.83;13.55;;;;;;;;;;4975395;28;20110;-61
2022/08/20 06:10:30;;;;;;;20.05;13.20;;;;;;;;;;4973580;28;20047;-61
2022/08/20 06:12:55;;;;;;;19.75;13.07;;;;;;;;;;4976215;28;20158;-60
2022/08/20 06:15:21;;;;;;;19.25;12.80;;;;;;;;;;4971518;28;20031;-61
2022/08/20 06:17:46;;;;;;;16.67;12.63;;;;;;;;;;4970735;28;20066;-60
2022/08/20 06:20:12;;;;;;;17.48;12.73;;;;;;;;;;4974040;28;20035;-60
2022/08/20 06:22:37;;;;;;;20.77;12.32;;;;;;;;;;4975048;28;20471;-60
2022/08/20 06:25:05;;;;;;;17.33;12.40;;;;;;;;;;4975737;28;20030;-60
2022/08/20 06:27:30;;;;;;;17.02;12.02;;;;;;;;;;4974379;28;20470;-60
2022/08/20 06:29:56;;;;;;;13.57;10.95;;;;;;;;;;4974236;28;20118;-60
2022/08/20 06:32:25;;;;;;;17.02;11.77;;;;;;;;;;4975022;28;20058;-60
2022/08/20 06:34:52;;;;;;;15.80;11.73;;;;;;;;;;4972519;28;20039;-60
2022/08/20 06:37:23;;;;;;;15.75;11.57;;;;;;;;;;4974420;28;20062;-60
2022/08/20 06:39:50;;;;;;;19.30;12.60;;;;;;;;;;4973911;28;20043;-60
2022/08/20 06:42:16;;;;;;;15.82;12.13;;;;;;;;;;4975155;28;20479;-60
2022/08/20 06:44:42;;;;;;;16.77;11.43;;;;;;;;;;4974035;28;20034;-60
2022/08/20 06:47:08;;;;;;;15.40;11.60;;;;;;;;;;4975585;28;20028;-60
2022/08/20 06:49:35;;;;;;;17.77;12.55;;;;;;;;;;4972935;28;20073;-60
2022/08/20 06:52:02;;;;;;;14.95;12.25;;;;;;;;;;4974567;28;20180;-60
2022/08/20 06:54:28;;;;;;;16.70;12.15;;;;;;;;;;4968481;28;20047;-60
2022/08/20 06:56:53;;;;;;;15.90;11.93;;;;;;;;;;4972798;28;20042;-60
2022/08/20 06:59:19;;;;;;;16.60;12.32;;;;;;;;;;4973978;28;20431;-60
2022/08/20 07:01:45;;;;;;;14.15;11.00;;;;;;;;;;4971627;28;20027;-59
2022/08/20 07:04:11;;;;;;;14.85;12.05;;;;;;;;;;4974388;28;20142;-61
2022/08/20 07:06:36;;;;;;;15.40;12.35;;;;;;;;;;4972298;28;20038;-58
2022/08/20 07:09:02;;;;;;;17.77;13.20;;;;;;;;;;4973828;28;20031;-60
2022/08/20 07:11:27;;;;;;;17.52;12.70;;;;;;;;;;4969866;28;20039;-59
2022/08/20 07:13:55;;;;;;;16.05;12.95;;;;;;;;;;4974465;28;20026;-59
2022/08/20 07:16:20;;;;;;;17.13;13.25;;;;;;;;;;4973650;28;20046;-60
2022/08/20 07:18:46;;;;;;;15.93;12.73;;;;;;;;;;4974443;28;20030;-60
2022/08/20 07:21:11;;;;;;;15.60;12.35;;;;;;;;;;4974645;28;21989;-59
2022/08/20 07:23:37;;;;;;;14.38;11.25;;;;;;;;;;4973118;28;20035;-59
2022/08/20 07:26:02;;;;;;;14.48;11.50;;;;;;;;;;4973644;28;20026;-59
2022/08/20 07:28:29;;;;;;;15.85;12.70;;;;;;;;;;4969980;28;20431;-59
2022/08/20 07:33:40;;;;;;;16.13;11.77;;;;;;;;;;4966409;28;20175;-61
2022/08/20 07:36:06;;;;;;;14.35;11.75;;;;;;;;;;4969127;28;20041;-60
2022/08/20 07:38:32;;;;;;;15.15;11.57;;;;;;;;;;4972338;28;20023;-60
2022/08/20 07:41:04;;;;;;;16.52;12.40;;;;;;;;;;4974167;28;20030;-60
2022/08/20 07:43:30;;;;;;;17.83;13.45;;;;;;;;;;4972442;28;20026;-60
2022/08/20 07:46:00;;;;;;;15.75;13.73;;;;;;;;;;4972162;28;20066;-60
2022/08/20 07:48:29;;;;;;;16.35;12.93;;;;;;;;;;4970139;28;20077;-61
2022/08/20 07:50:56;;;;;;;22.63;16.23;;;;;;;;;;4972229;28;20026;-60
2022/08/20 07:53:22;;;;;;;19.45;16.23;;;;;;;;;;4971599;28;20473;-62
2022/08/20 07:55:48;;;;;;;21.60;17.27;;;;;;;;;;4972531;28;20154;-60
2022/08/20 07:58:16;;;;;;;19.13;16.13;;;;;;;;;;4971267;28;20480;-61
2022/08/20 08:00:42;;;;;;;21.10;17.25;;;;;;;;;;4971102;28;20042;-60
2022/08/20 08:03:08;;;;;;;19.92;17.13;;;;;;;;;;4972451;28;20027;-60
2022/08/20 08:05:37;;;;;;;22.73;19.15;;;;;;;;;;4968816;28;20042;-60
2022/08/20 08:08:05;;;;;;;22.55;19.58;;;;;;;;;;4969242;28;20420;-59
2022/08/20 08:10:30;;;;;;;25.75;21.77;;;;;;;;;;4973282;28;20030;-60
2022/08/20 08:12:59;;;;;;;24.80;20.63;;;;;;;;;;4973353;28;20035;-59
2022/08/20 08:15:30;;;;;;;27.30;19.60;;;;;;;;;;4972456;28;20101;-61
2022/08/20 08:18:00;;;;;;;23.15;19.13;;;;;;;;;;4971152;28;20115;-60
2022/08/20 08:20:26;;;;;;;19.80;17.55;;;;;;;;;;4972942;28;20042;-60
2022/08/20 08:22:52;;;;;;;16.90;14.00;;;;;;;;;;4972412;28;20035;-59
2022/08/20 08:25:18;;;;;;;16.45;12.55;;;;;;;;;;4971505;28;20034;-59
2022/08/20 08:27:47;;;;;;;15.35;12.85;;;;;;;;;;4971754;28;20074;-59
2022/08/20 08:30:14;;;;;;;14.43;11.10;;;;;;;;;;4971836;28;20402;-60
2022/08/20 08:33:26;;;;;;;13.77;10.57;;;;;;;;;;4970294;28;20031;-60
2022/08/20 08:35:25;;;;;;;10.90;9.65;;;;;;;;;;4972423;28;20030;-62
2022/08/20 08:37:51;;;;;;;12.48;9.20;;;;;;;;;;4970920;28;20041;-60
2022/08/20 08:40:17;;;;;;;12.57;8.38;;;;;;;;;;4972516;28;20035;-60
2022/08/20 08:42:46;;;;;;;9.35;7.90;;;;;;;;;;4971479;28;20035;-60
2022/08/20 08:45:16;;;;;;;10.13;7.43;;;;;;;;;;4972693;28;20034;-60
2022/08/20 08:47:43;;;;;;;9.45;6.93;;;;;;;;;;4969883;28;20035;-60
2022/08/20 08:50:25;;;;;;;9.38;5.20;;;;;;;;;;4971438;28;20082;-60
2022/08/20 08:52:58;;;;;;;5.82;4.20;;;;;;;;;;4971776;28;20105;-60
2022/08/20 08:55:25;;;;;;;5.55;3.58;;;;;;;;;;4972265;28;20444;-62
2022/08/20 08:57:54;;;;;;;5.63;3.58;;;;;;;;;;4972965;28;20154;-61
2022/08/20 09:00:21;;;;;;;6.68;3.80;;;;;;;;;;4972529;28;20109;-60
2022/08/20 09:02:58;;;;;;;5.88;4.50;;;;;;;;;;4971183;28;20031;-60
2022/08/20 09:05:30;;;;;;;6.80;4.70;;;;;;;;;;4971707;28;20467;-59
2022/08/20 09:07:57;;;;;;;7.03;4.72;;;;;;;;;;4972021;28;20065;-59
2022/08/20 09:10:23;;;;;;;6.78;4.72;;;;;;;;;;4969978;28;20450;-59
2022/08/20 09:12:49;;;;;;;6.43;4.13;;;;;;;;;;4970840;28;20046;-61
2022/08/20 09:15:15;;;;;;;8.00;4.75;;;;;;;;;;4969243;28;20023;-60
2022/08/20 09:17:41;;;;;;;6.22;4.25;;;;;;;;;;4971586;28;20483;-61
2022/08/20 09:20:09;;;;;;;5.38;4.13;;;;;;;;;;4972970;28;20037;-60
2022/08/20 09:22:35;;;;;;;6.38;4.28;;;;;;;;;;4969533;28;20081;-60
2022/08/20 09:25:02;;;;;;;5.88;4.30;;;;;;;;;;4973087;28;20049;-60
2022/08/20 09:27:28;;;;;;;7.35;4.20;;;;;;;;;;4970985;28;20031;-62
2022/08/20 09:29:54;;;;;;;5.80;3.92;;;;;;;;;;4970860;28;20034;-60
2022/08/20 09:32:21;;;;;;;6.63;4.40;;;;;;;;;;4970567;28;20392;-60
2022/08/20 09:34:57;;;;;;;7.18;4.38;;;;;;;;;;4971126;28;20114;-59
2022/08/20 09:37:28;;;;;;;6.38;5.07;;;;;;;;;;4971474;28;20027;-61
2022/08/20 09:39:53;;;;;;;7.55;5.57;;;;;;;;;;4970377;28;20479;-60
2022/08/20 09:42:25;;;;;;;6.30;4.50;;;;;;;;;;4972473;28;20037;-61
2022/08/20 09:44:51;;;;;;;9.82;4.05;;;;;;;;;;4970264;28;20499;-60
2022/08/20 09:47:16;;;;;;;5.70;4.03;;;;;;;;;;4972945;28;20027;-60
2022/08/20 09:49:43;;;;;;;5.35;3.22;;;;;;;;;;4970206;28;20031;-60
2022/08/20 09:52:14;;;;;;;5.80;3.60;;;;;;;;;;4953181;28;20073;-60
2022/08/20 09:54:40;;;;;;;7.55;6.15;;;;;;;;;;4969762;28;20042;-60
2022/08/20 09:57:07;;;;;;;7.35;5.93;;;;;;;;;;4970501;28;20426;-61
2022/08/20 09:59:34;;;;;;;9.48;6.13;;;;;;;;;;4971236;28;20110;-60
2022/08/20 10:02:00;;;;;;;7.38;6.00;;;;;;;;;;4970838;28;20082;-61
2022/08/20 10:04:25;;;;;;;6.68;5.40;;;;;;;;;;4966579;28;20031;-61
2022/08/20 10:06:50;;;;;;;6.93;5.28;;;;;;;;;;4965760;28;20030;-61
2022/08/20 10:09:16;;;;;;;9.50;5.07;;;;;;;;;;4971954;28;20484;-60
2022/08/20 10:11:42;;;;;;;7.88;6.00;;;;;;;;;;4970209;28;20045;-61
2022/08/20 10:14:10;;;;;;;10.48;7.88;;;;;;;;;;4966643;28;21183;-60
2022/08/20 10:16:36;;;;;;;10.80;8.30;;;;;;;;;;4974978;28;20110;-61
2022/08/20 10:19:03;;;;;;;11.30;7.90;;;;;;;;;;4973826;28;20146;-60
2022/08/20 10:21:29;;;;;;;10.32;7.40;;;;;;;;;;4974633;28;20034;-62
2022/08/20 10:23:55;;;;;;;7.45;6.00;;;;;;;;;;4975158;28;20555;-60
2022/08/20 10:26:21;;;;;;;8.43;6.45;;;;;;;;;;4974791;28;20039;-60
2022/08/20 10:28:46;;;;;;;6.47;4.60;;;;;;;;;;4975121;28;20403;-60
2022/08/20 10:31:12;;;;;;;6.78;4.72;;;;;;;;;;4965558;28;20142;-61
2022/08/20 10:33:38;;;;;;;6.13;4.50;;;;;;;;;;4955309;28;20071;-60
2022/08/20 10:36:11;;;;;;;7.20;5.50;;;;;;;;;;4971308;28;20121;-59
2022/08/20 10:38:37;;;;;;;9.30;7.45;;;;;;;;;;4973408;28;20467;-61
2022/08/20 10:41:03;;;;;;;12.50;9.85;;;;;;;;;;4974371;28;20117;-60
2022/08/20 10:43:29;;;;;;;14.55;11.32;;;;;;;;;;4974851;28;20089;-61
2022/08/20 10:45:54;;;;;;;23.17;16.13;;;;;;;;;;4973406;28;20042;-61
2022/08/20 10:48:20;;;;;;;18.13;14.93;;;;;;;;;;4972052;28;20022;-60
2022/08/20 10:50:45;;;;;;;15.73;12.57;;;;;;;;;;4973560;28;20038;-59
2022/08/20 10:53:11;;;;;;;16.40;11.60;;;;;;;;;;4975414;28;20038;-64
2022/08/20 10:55:38;;;;;;;18.95;14.55;;;;;;;;;;4973118;28;20023;-62
2022/08/20 10:58:07;;;;;;;15.90;13.20;;;;;;;;;;4973281;28;20078;-62
2022/08/20 11:00:33;;;;;;;16.20;12.32;;;;;;;;;;4975047;28;20031;-64
2022/08/20 11:02:58;;;;;;;15.98;11.95;;;;;;;;;;4972293;28;20053;-61
2022/08/20 11:05:23;;;;;;;17.60;13.18;;;;;;;;;;4974307;28;20052;-61
2022/08/20 11:07:49;;;;;;;17.70;13.45;;;;;;;;;;4971493;28;20043;-61
2022/08/20 11:10:15;;;;;;;20.55;13.85;;;;;;;;;;4974741;28;20046;-61
2022/08/20 11:12:41;;;;;;;19.98;14.48;;;;;;;;;;4972778;28;20066;-60
2022/08/20 11:15:07;;;;;;;17.35;14.07;;;;;;;;;;4974559;28;20055;-60
2022/08/20 11:17:39;;;;;;;27.40;20.83;;;;;;;;;;4970402;28;20030;-64
2022/08/20 11:20:07;;;;;;;19.13;13.80;;;;;;;;;;4973658;28;20031;-59
2022/08/20 11:22:33;;;;;;;18.08;13.07;;;;;;;;;;4973526;28;20050;-62
2022/08/20 11:24:58;;;;;;;16.83;13.52;;;;;;;;;;4974756;28;20409;-60
2022/08/20 11:27:33;;;;;;;17.02;13.23;;;;;;;;;;4974170;28;20058;-60
2022/08/20 11:29:58;;;;;;;19.73;12.50;;;;;;;;;;4973405;28;20084;-62
2022/08/20 11:32:24;;;;;;;18.05;11.68;;;;;;;;;;4974394;28;20117;-62
2022/08/20 11:34:50;;;;;;;21.35;12.45;;;;;;;;;;4974274;28;20465;-61
2022/08/20 11:37:18;;;;;;;13.85;10.65;;;;;;;;;;4970841;28;20495;-61
2022/08/20 11:39:44;;;;;;;14.48;10.15;;;;;;;;;;4971115;28;20042;-61
2022/08/20 11:42:10;;;;;;;13.30;10.25;;;;;;;;;;4974674;28;20035;-60
2022/08/20 11:44:35;;;;;;;15.90;10.23;;;;;;;;;;4971545;28;20027;-64
2022/08/20 11:47:02;;;;;;;13.50;9.52;;;;;;;;;;4969166;28;20121;-61
2022/08/20 11:49:32;;;;;;;13.52;9.30;;;;;;;;;;4974433;28;20031;-60
2022/08/20 11:51:58;;;;;;;14.10;9.38;;;;;;;;;;4971516;28;20073;-60
2022/08/20 11:54:23;;;;;;;14.75;9.65;;;;;;;;;;4973800;28;20058;-61
2022/08/20 11:56:49;;;;;;;17.88;10.10;;;;;;;;;;4971604;28;20479;-61
2022/08/20 11:59:16;;;;;;;13.45;9.80;;;;;;;;;;4974492;28;20045;-61
2022/08/20 12:01:41;;;;;;;14.60;10.73;;;;;;;;;;4971955;28;20046;-61
2022/08/20 12:04:07;;;;;;;16.40;10.88;;;;;;;;;;4972116;28;20416;-59
2022/08/20 12:06:32;;;;;;;13.23;9.75;;;;;;;;;;4969825;28;20031;-60
2022/08/20 12:08:58;;;;;;;13.00;8.20;;;;;;;;;;4972256;28;20039;-61
2022/08/20 12:11:23;;;;;;;13.20;7.65;;;;;;;;;;4959090;28;20027;-60
2022/08/20 12:13:49;;;;;;;13.85;9.38;;;;;;;;;;4971638;28;20038;-60
2022/08/20 12:16:16;;;;;;;15.15;9.05;;;;;;;;;;4972824;28;20031;-61
2022/08/20 12:18:41;;;;;;;12.57;8.00;;;;;;;;;;4972618;28;20153;-61
2022/08/20 12:21:06;;;;;;;11.10;7.80;;;;;;;;;;4973478;28;20113;-60
2022/08/20 12:23:32;;;;;;;11.43;7.78;;;;;;;;;;4972243;28;20407;-60
2022/08/20 12:26:01;;;;;;;9.70;6.68;;;;;;;;;;4971963;28;20042;-60
2022/08/20 12:28:27;;;;;;;11.80;6.72;;;;;;;;;;4972717;28;20034;-61
2022/08/20 12:30:53;;;;;;;7.70;5.18;;;;;;;;;;4971118;28;20110;-62
2022/08/20 12:33:18;;;;;;;8.30;4.88;;;;;;;;;;4972711;28;20536;-60
2022/08/20 12:35:43;;;;;;;7.22;4.68;;;;;;;;;;4966413;28;20035;-59
2022/08/20 12:38:09;;;;;;;8.02;5.20;;;;;;;;;;4971238;28;20114;-63
2022/08/20 12:40:34;;;;;;;10.45;4.90;;;;;;;;;;4972296;28;20479;-60
2022/08/20 12:43:01;;;;;;;8.30;4.53;;;;;;;;;;4971652;28;20039;-60
2022/08/20 12:45:27;;;;;;;7.30;4.25;;;;;;;;;;4970462;28;20038;-60
2022/08/20 12:47:59;;;;;;;6.97;4.32;;;;;;;;;;4971900;28;20027;-60
2022/08/20 12:50:25;;;;;;;8.88;4.30;;;;;;;;;;4972538;28;20035;-60
2022/08/20 12:52:51;;;;;;;6.70;4.32;;;;;;;;;;4971591;28;20533;-60
2022/08/20 12:55:18;;;;;;;7.15;5.22;;;;;;;;;;4970622;28;20039;-60
2022/08/20 12:57:49;;;;;;;8.70;5.57;;;;;;;;;;4971718;28;20081;-60
2022/08/20 13:00:22;;;;;;;8.10;4.75;;;;;;;;;;4971881;28;20038;-59
2022/08/20 13:02:55;;;;;;;9.23;4.75;;;;;;;;;;4970980;28;20032;-61
2022/08/20 13:05:21;;;;;;;8.40;4.70;;;;;;;;;;4967151;28;20065;-59
2022/08/20 13:07:47;;;;;;;5.97;4.00;;;;;;;;;;4969463;28;20070;-60
2022/08/20 13:10:22;;;;;;;7.70;3.20;;;;;;;;;;4972397;28;20073;-60
2022/08/20 13:12:47;;;;;;;4.72;2.80;;;;;;;;;;4970974;28;20042;-60
2022/08/20 13:15:13;;;;;;;7.70;2.60;;;;;;;;;;4973496;28;20035;-60
2022/08/20 13:17:39;;;;;;;8.50;3.13;;;;;;;;;;4971618;28;20480;-62
2022/08/20 13:20:08;;;;;;;8.18;3.20;;;;;;;;;;4966489;28;20045;-61
2022/08/20 13:22:34;;;;;;;5.90;3.15;;;;;;;;;;4970199;28;20117;-61
2022/08/20 13:24:59;;;;;;;5.70;3.00;;;;;;;;;;4971188;28;20106;-61
2022/08/20 13:27:25;;;;;;;6.60;2.90;;;;;;;;;;4973007;28;20047;-62
2022/08/20 13:29:55;;;;;;;6.93;2.90;;;;;;;;;;4970818;28;20042;-62
2022/08/20 13:32:21;;;;;;;;;;;;;;;;;;4971577;28;20042;-61
2022/08/20 13:34:47;;;;;;;7.38;2.90;;;;;;;;;;4970966;28;19964;-62
2022/08/20 13:37:21;;;;;;;5.15;3.00;;;;;;;;;;4970359;28;20062;-62
2022/08/20 13:39:47;;;;;;;11.27;3.25;;;;;;;;;;4968364;28;20039;-62
2022/08/20 13:42:14;;;;;;;6.82;3.10;;;;;;;;;;4953540;28;20062;-61
2022/08/20 13:44:39;;;;;;;7.82;3.00;;;;;;;;;;4962239;28;20035;-61
2022/08/20 13:47:38;;;;;;;7.95;2.80;;;;;;;;;;4971909;28;20031;-61
2022/08/20 13:50:08;;;;;;;5.40;2.70;;;;;;;;;;4960479;28;20097;-62
2022/08/20 13:52:35;;;;;;;5.10;2.33;;;;;;;;;;4972715;28;20038;-61
2022/08/20 13:55:01;;;;;;;6.80;3.00;;;;;;;;;;4974545;28;20610;-61
2022/08/20 13:57:27;;;;;;;5.45;2.60;;;;;;;;;;4974127;28;20046;-62
2022/08/20 13:59:55;;;;;;;9.70;2.90;;;;;;;;;;4971316;28;20035;-62
2022/08/20 14:02:21;;;;;;;6.45;3.20;;;;;;;;;;4975558;28;20114;-62
2022/08/20 14:04:47;;;;;;;6.75;3.10;;;;;;;;;;4973546;28;20135;-62
2022/08/20 14:07:20;;;;;;;6.78;3.10;;;;;;;;;;4976293;28;20050;-61
2022/08/20 14:09:49;;;;;;;7.43;3.05;;;;;;;;;;4975437;28;20031;-62
2022/08/20 14:12:15;;;;;;;6.53;2.92;;;;;;;;;;4975183;28;20031;-62
2022/08/20 14:14:41;;;;;;;4.95;2.72;;;;;;;;;;4976079;28;20035;-61
2022/08/20 14:17:23;;;;;;;6.72;2.88;;;;;;;;;;4975591;28;20070;-61
2022/08/20 14:19:52;;;;;;;5.32;3.15;;;;;;;;;;4975321;28;20038;-61
2022/08/20 14:22:17;;;;;;;7.20;3.05;;;;;;;;;;4975801;28;20038;-61
2022/08/20 14:24:47;;;;;;;7.10;2.95;;;;;;;;;;4975015;28;20039;-62
2022/08/20 14:27:16;;;;;;;6.15;2.60;;;;;;;;;;4975032;28;20041;-61
2022/08/20 14:29:43;;;;;;;6.72;2.80;;;;;;;;;;4974817;28;20126;-62
2022/08/20 14:32:10;;;;;;;6.10;2.70;;;;;;;;;;4968721;28;20035;-62
2022/08/20 14:34:36;;;;;;;5.43;3.10;;;;;;;;;;4965865;28;20345;-62